Time;durP1;ratioP1;P1;durP2;ratioP2;P2;SDS_P1;SDS_P2;PMS_P1;PMS_P2;Temp;Humidity;BMP_temperature;BMP_pressure;BME280_temperature;BME280_humidity;BME280_pressure;Samples;Min_cycle;Max_cycle;Signal;HPM_P1;HPM_P2
2024/04/09 00:00:21;;;;;;;3.42;0.80;;;14.20;99.90;;;;;;5451107;26;20003;-71
2024/04/09 00:02:47;;;;;;;1.70;0.98;;;14.20;99.90;;;;;;5465583;25;20017;-74
2024/04/09 00:05:13;;;;;;;3.22;0.82;;;14.20;99.90;;;;;;5453801;25;20428;-71
2024/04/09 00:07:39;;;;;;;3.45;0.63;;;14.20;99.90;;;;;;5451068;25;20067;-71
2024/04/09 00:10:06;;;;;;;5.85;1.08;;;14.20;99.90;;;;;;5459540;25;19998;-71
2024/04/09 00:12:36;;;;;;;10.65;1.10;;;14.20;99.90;;;;;;5452314;25;20006;-72
2024/04/09 00:15:07;;;;;;;6.25;0.88;;;14.20;99.90;;;;;;5461001;25;20061;-71
2024/04/09 00:17:44;;;;;;;4.18;0.88;;;14.20;99.90;;;;;;5432413;26;20003;-72
2024/04/09 00:20:11;;;;;;;2.25;0.70;;;14.20;99.90;;;;;;5449968;25;20021;-71
2024/04/09 00:22:39;;;;;;;7.07;0.90;;;14.20;99.90;;;;;;5449565;26;20053;-72
2024/04/09 00:25:05;;;;;;;2.33;0.60;;;14.10;99.90;;;;;;5461113;25;20002;-70
2024/04/09 00:27:30;;;;;;;4.40;0.82;;;14.10;99.90;;;;;;5458805;25;19999;-71
2024/04/09 00:29:56;;;;;;;3.70;0.90;;;14.10;99.90;;;;;;5456823;26;20254;-71
2024/04/09 00:32:22;;;;;;;1.38;0.50;;;14.10;99.90;;;;;;5457496;25;20466;-72
2024/04/09 00:34:48;;;;;;;5.40;0.50;;;14.10;99.90;;;;;;5464437;26;20006;-71
2024/04/09 00:37:14;;;;;;;7.50;0.35;;;14.00;99.90;;;;;;5456941;25;20359;-71
2024/04/09 00:39:41;;;;;;;3.17;0.57;;;14.00;99.90;;;;;;5445245;26;20002;-70
2024/04/09 00:42:09;;;;;;;1.60;0.40;;;14.00;99.90;;;;;;5449581;26;20014;-71
2024/04/09 00:44:36;;;;;;;2.20;0.63;;;14.00;99.90;;;;;;5457817;26;20003;-72
2024/04/09 00:47:04;;;;;;;4.50;0.43;;;14.00;99.90;;;;;;5467133;25;20013;-71
2024/04/09 00:49:31;;;;;;;4.75;0.40;;;14.00;99.90;;;;;;5448113;26;20015;-71
2024/04/09 00:51:57;;;;;;;3.13;0.20;;;14.00;99.90;;;;;;5450350;26;19999;-72
2024/04/09 00:54:24;;;;;;;1.75;0.35;;;14.00;99.90;;;;;;5449773;26;19995;-71
2024/04/09 00:56:50;;;;;;;2.40;0.30;;;14.00;99.90;;;;;;5458172;26;20437;-71
2024/04/09 00:59:16;;;;;;;4.57;0.50;;;14.00;99.90;;;;;;5459347;25;20006;-71
2024/04/09 01:01:46;;;;;;;3.17;0.40;;;14.10;99.90;;;;;;5456870;25;20083;-71
2024/04/09 01:04:12;;;;;;;3.97;0.28;;;13.90;99.90;;;;;;5460091;25;19998;-71
2024/04/09 01:06:38;;;;;;;0.50;0.20;;;13.90;99.90;;;;;;5455524;26;20005;-73
2024/04/09 01:09:04;;;;;;;8.25;0.43;;;13.90;99.90;;;;;;5455898;25;20077;-70
2024/04/09 01:11:29;;;;;;;3.10;0.95;;;13.90;99.90;;;;;;5453302;26;19999;-70
2024/04/09 01:13:55;;;;;;;4.05;0.32;;;13.90;99.90;;;;;;5466628;25;20455;-69
2024/04/09 01:16:21;;;;;;;2.05;0.50;;;13.90;99.90;;;;;;5452776;25;20344;-73
2024/04/09 01:18:47;;;;;;;3.50;0.60;;;13.90;99.90;;;;;;5467117;25;20018;-71
2024/04/09 01:21:13;;;;;;;4.97;0.93;;;13.90;99.90;;;;;;5457869;25;20519;-75
2024/04/09 01:23:39;;;;;;;3.50;0.60;;;14.00;99.90;;;;;;5454125;26;20016;-70
2024/04/09 01:26:04;;;;;;;2.72;0.52;;;13.90;99.90;;;;;;5464360;25;20008;-71
2024/04/09 01:28:33;;;;;;;2.72;0.60;;;13.90;99.90;;;;;;5459687;25;19999;-71
2024/04/09 01:31:01;;;;;;;4.53;0.68;;;13.90;99.90;;;;;;5466713;25;20351;-70
2024/04/09 01:33:27;;;;;;;2.83;0.70;;;13.90;99.90;;;;;;5455950;26;19998;-70
2024/04/09 01:35:54;;;;;;;3.50;0.70;;;13.90;99.90;;;;;;5455010;26;19999;-72
2024/04/09 01:38:20;;;;;;;6.55;0.90;;;13.90;99.90;;;;;;5456653;25;20332;-73
2024/04/09 01:40:47;;;;;;;8.85;0.88;;;13.90;99.90;;;;;;5456678;26;20013;-71
2024/04/09 01:43:12;;;;;;;4.30;0.45;;;13.90;99.90;;;;;;5464531;26;20013;-70
2024/04/09 01:45:38;;;;;;;2.70;0.70;;;13.80;99.90;;;;;;5461906;26;19999;-68
2024/04/09 01:48:04;;;;;;;6.47;0.82;;;13.90;99.90;;;;;;5451712;25;20006;-72
2024/04/09 01:50:31;;;;;;;1.85;0.55;;;13.80;99.90;;;;;;5458765;26;20339;-71
2024/04/09 01:52:57;;;;;;;4.38;0.85;;;13.80;99.90;;;;;;5450947;25;20364;-70
2024/04/09 01:55:22;;;;;;;8.25;0.57;;;13.80;99.90;;;;;;5452676;26;20065;-71
2024/04/09 01:57:48;;;;;;;3.58;0.47;;;13.80;99.90;;;;;;5462562;25;20013;-72
2024/04/09 02:00:20;;;;;;;5.50;0.93;;;13.80;99.90;;;;;;5462706;25;20018;-71
2024/04/09 02:02:52;;;;;;;6.43;0.77;;;13.80;99.90;;;;;;5462007;26;20067;-70
2024/04/09 02:05:19;;;;;;;1.90;0.50;;;13.80;99.90;;;;;;5467859;25;20066;-71
2024/04/09 02:07:45;;;;;;;5.57;0.80;;;13.80;99.90;;;;;;5468857;26;20010;-70
2024/04/09 02:10:11;;;;;;;4.38;0.80;;;13.80;99.90;;;;;;5437725;25;20004;-70
2024/04/09 02:12:38;;;;;;;5.80;1.25;;;13.80;99.90;;;;;;5466135;25;20007;-72
2024/04/09 02:15:05;;;;;;;2.88;0.47;;;13.80;99.90;;;;;;5464550;25;20954;-68
2024/04/09 02:17:30;;;;;;;7.88;0.88;;;13.80;99.90;;;;;;5450557;26;19999;-70
2024/04/09 02:19:56;;;;;;;2.97;0.98;;;13.80;99.90;;;;;;5465658;26;20074;-68
2024/04/09 02:22:22;;;;;;;3.30;0.77;;;13.90;99.90;;;;;;5456614;25;20013;-74
2024/04/09 02:24:48;;;;;;;3.25;1.25;;;13.90;99.90;;;;;;5464930;25;20005;-72
2024/04/09 02:27:13;;;;;;;2.45;1.10;;;13.90;99.90;;;;;;5456584;26;19999;-71
2024/04/09 02:29:39;;;;;;;4.45;1.00;;;13.90;99.90;;;;;;5461447;25;20006;-71
2024/04/09 02:32:05;;;;;;;1.67;0.70;;;13.80;99.90;;;;;;5464157;26;19998;-70
2024/04/09 02:34:35;;;;;;;1.77;0.70;;;13.70;99.90;;;;;;5459486;25;19999;-72
2024/04/09 02:37:05;;;;;;;2.30;0.30;;;13.60;99.90;;;;;;5463084;26;20040;-71
2024/04/09 02:39:31;;;;;;;2.73;0.57;;;13.50;99.90;;;;;;5463676;25;20002;-74
2024/04/09 02:41:57;;;;;;;6.55;0.35;;;13.30;99.90;;;;;;5466854;26;20009;-70
2024/04/09 02:44:23;;;;;;;1.33;0.30;;;13.30;99.90;;;;;;5464182;25;19999;-70
2024/04/09 02:46:49;;;;;;;2.13;0.73;;;13.20;99.90;;;;;;5463955;25;20002;-71
2024/04/09 02:49:15;;;;;;;2.33;0.50;;;13.20;99.90;;;;;;5457466;25;20065;-71
2024/04/09 02:51:41;;;;;;;2.70;0.50;;;13.20;99.90;;;;;;5461706;26;20020;-71
2024/04/09 02:54:08;;;;;;;2.28;0.47;;;13.10;99.90;;;;;;5465992;25;19999;-71
2024/04/09 02:56:34;;;;;;;1.65;0.30;;;13.10;99.90;;;;;;5457591;26;20006;-71
2024/04/09 02:59:00;;;;;;;4.55;0.50;;;13.10;99.90;;;;;;5464108;25;20460;-71
2024/04/09 03:01:26;;;;;;;4.57;0.43;;;13.10;99.90;;;;;;5463351;26;20049;-70
2024/04/09 03:03:51;;;;;;;6.32;0.57;;;13.10;99.90;;;;;;5453129;25;19998;-71
2024/04/09 03:06:17;;;;;;;4.68;1.08;;;13.10;99.90;;;;;;5463859;25;20016;-71
2024/04/09 03:08:43;;;;;;;3.50;0.55;;;13.10;99.90;;;;;;5452345;26;20098;-70
2024/04/09 03:11:13;;;;;;;5.78;0.63;;;13.00;99.90;;;;;;5465892;25;20017;-71
2024/04/09 03:13:40;;;;;;;2.33;0.63;;;13.00;99.90;;;;;;5448171;25;20006;-71
2024/04/09 03:16:13;;;;;;;5.25;0.75;;;13.00;99.90;;;;;;5442051;26;20013;-71
2024/04/09 03:18:39;;;;;;;3.90;0.63;;;13.00;99.90;;;;;;5461163;25;20022;-72
2024/04/09 03:21:05;;;;;;;3.53;0.65;;;13.00;99.90;;;;;;5456032;25;20363;-71
2024/04/09 03:23:31;;;;;;;4.20;0.90;;;13.00;99.90;;;;;;5449888;26;20018;-71
2024/04/09 03:25:57;;;;;;;4.78;0.70;;;12.90;99.90;;;;;;5459477;25;20010;-68
2024/04/09 03:28:22;;;;;;;9.45;1.40;;;12.90;99.90;;;;;;5454163;25;19998;-70
2024/04/09 03:31:02;;;;;;;4.45;0.70;;;12.90;99.90;;;;;;5450106;25;20017;-70
2024/04/09 03:33:27;;;;;;;7.30;0.83;;;12.90;99.90;;;;;;5417845;26;20556;-72
2024/04/09 03:35:57;;;;;;;2.67;0.70;;;12.90;99.90;;;;;;5461084;25;20003;-74
2024/04/09 03:38:24;;;;;;;5.38;1.15;;;12.90;99.90;;;;;;5465616;25;20373;-72
2024/04/09 03:40:59;;;;;;;9.00;0.85;;;12.90;99.90;;;;;;5455116;25;20008;-74
2024/04/09 03:43:25;;;;;;;3.83;0.75;;;12.90;99.90;;;;;;5462351;25;20002;-71
2024/04/09 03:46:08;;;;;;;6.07;0.73;;;12.90;99.90;;;;;;5450231;26;20047;-72
2024/04/09 03:48:38;;;;;;;2.25;0.82;;;12.90;99.90;;;;;;5456001;25;20018;-72
2024/04/09 03:51:04;;;;;;;4.68;0.73;;;12.90;99.90;;;;;;5466171;25;20043;-72
2024/04/09 03:53:30;;;;;;;5.60;0.80;;;12.90;99.90;;;;;;5461097;26;19998;-71
2024/04/09 03:55:56;;;;;;;5.97;0.90;;;12.90;99.90;;;;;;5455565;25;19999;-69
2024/04/09 03:58:22;;;;;;;3.33;1.00;;;12.90;99.90;;;;;;5453661;25;20006;-71
2024/04/09 04:00:55;;;;;;;3.13;0.95;;;12.90;99.90;;;;;;5461017;25;20014;-72
2024/04/09 04:03:21;;;;;;;5.07;0.90;;;12.90;99.90;;;;;;5459390;26;20378;-71
2024/04/09 04:05:51;;;;;;;3.03;1.70;;;12.90;99.90;;;;;;5455680;26;20010;-72
2024/04/09 04:08:17;;;;;;;6.35;1.90;;;12.90;99.90;;;;;;5460447;25;20013;-71
2024/04/09 04:10:50;;;;;;;7.65;2.92;;;12.90;99.90;;;;;;5453525;26;20070;-71
2024/04/09 04:13:16;;;;;;;5.80;2.60;;;13.00;99.90;;;;;;5450266;25;20021;-71
2024/04/09 04:15:42;;;;;;;6.00;2.55;;;12.90;99.90;;;;;;5454230;25;19998;-72
2024/04/09 04:18:07;;;;;;;7.25;2.55;;;13.00;99.90;;;;;;5459426;25;20014;-72
2024/04/09 04:20:33;;;;;;;10.80;3.28;;;12.90;99.90;;;;;;5459036;26;20383;-71
2024/04/09 04:22:58;;;;;;;8.00;2.22;;;13.00;99.90;;;;;;5455233;25;19995;-68
2024/04/09 04:25:24;;;;;;;6.13;2.40;;;12.90;99.90;;;;;;5458704;25;20423;-71
2024/04/09 04:27:49;;;;;;;10.48;2.75;;;13.00;99.90;;;;;;5461493;25;20007;-70
2024/04/09 04:30:15;;;;;;;8.07;2.00;;;13.00;99.90;;;;;;5443399;26;20004;-72
2024/04/09 04:32:41;;;;;;;4.70;1.95;;;12.90;99.90;;;;;;5464161;25;20003;-72
2024/04/09 04:35:06;;;;;;;6.05;2.05;;;12.90;99.90;;;;;;5458629;25;20075;-72
2024/04/09 04:37:33;;;;;;;4.70;1.38;;;12.90;99.90;;;;;;5458297;25;19998;-71
2024/04/09 04:39:58;;;;;;;4.35;1.20;;;12.90;99.90;;;;;;5457377;25;20028;-70
2024/04/09 04:42:25;;;;;;;6.72;1.52;;;12.90;99.90;;;;;;5468167;25;20987;-70
2024/04/09 04:44:51;;;;;;;4.78;1.75;;;12.80;99.90;;;;;;5452137;26;20013;-71
2024/04/09 04:47:17;;;;;;;3.10;0.85;;;12.80;99.90;;;;;;5451023;26;19998;-71
2024/04/09 04:49:43;;;;;;;3.85;0.65;;;12.70;99.90;;;;;;5457301;26;20046;-70
2024/04/09 04:52:09;;;;;;;5.50;1.13;;;12.70;99.90;;;;;;5449671;25;20009;-71
2024/04/09 04:54:35;;;;;;;8.50;0.60;;;12.60;99.90;;;;;;5459792;25;19995;-71
2024/04/09 04:57:01;;;;;;;2.50;0.35;;;12.50;99.90;;;;;;5461757;25;19999;-74
2024/04/09 04:59:26;;;;;;;6.80;0.63;;;12.50;99.90;;;;;;5453302;26;20000;-71
2024/04/09 05:01:52;;;;;;;5.05;0.80;;;12.40;99.90;;;;;;5447752;26;20035;-71
2024/04/09 05:04:18;;;;;;;6.82;0.70;;;12.30;99.90;;;;;;5461198;25;20435;-71
2024/04/09 05:06:44;;;;;;;6.82;1.00;;;12.30;99.90;;;;;;5457990;25;20003;-71
2024/04/09 05:09:11;;;;;;;2.17;0.70;;;12.20;99.90;;;;;;5470627;25;20002;-71
2024/04/09 05:11:39;;;;;;;4.90;1.42;;;12.20;99.90;;;;;;5459549;25;20003;-71
2024/04/09 05:14:05;;;;;;;3.50;0.65;;;12.20;99.90;;;;;;5457809;25;20022;-71
2024/04/09 05:16:30;;;;;;;3.33;1.30;;;12.20;99.90;;;;;;5460619;25;19998;-72
2024/04/09 05:18:56;;;;;;;5.25;0.90;;;12.10;99.90;;;;;;5426555;26;20041;-70
2024/04/09 05:21:22;;;;;;;5.47;0.65;;;12.00;99.90;;;;;;5448256;26;19999;-72
2024/04/09 05:23:48;;;;;;;2.35;0.60;;;12.00;99.90;;;;;;5448495;26;20071;-72
2024/04/09 05:26:14;;;;;;;4.10;0.73;;;11.90;99.90;;;;;;5447802;25;20003;-73
2024/04/09 05:28:39;;;;;;;4.22;0.90;;;11.90;99.90;;;;;;5449843;26;20405;-73
2024/04/09 05:31:05;;;;;;;4.80;0.52;;;11.80;99.90;;;;;;5446460;25;20002;-74
2024/04/09 05:33:30;;;;;;;3.20;0.93;;;11.80;99.90;;;;;;5449626;26;20359;-73
2024/04/09 05:35:56;;;;;;;4.97;0.30;;;11.80;99.90;;;;;;5436324;26;20069;-70
2024/04/09 05:38:22;;;;;;;5.13;1.00;;;11.80;99.90;;;;;;5451517;25;20013;-73
2024/04/09 05:40:55;;;;;;;4.93;0.93;;;11.80;99.90;;;;;;5451231;25;20034;-73
2024/04/09 05:43:20;;;;;;;4.68;1.05;;;11.70;99.90;;;;;;5445653;26;20004;-74
2024/04/09 05:45:46;;;;;;;4.55;1.10;;;11.80;99.90;;;;;;5461505;25;20060;-74
2024/04/09 05:48:12;;;;;;;2.88;0.55;;;11.70;99.90;;;;;;5454603;25;20017;-73
2024/04/09 05:50:38;;;;;;;2.28;0.73;;;11.80;99.90;;;;;;5445295;26;20459;-74
2024/04/09 05:53:03;;;;;;;7.07;0.77;;;11.70;99.90;;;;;;5449348;26;20017;-73
2024/04/09 05:55:29;;;;;;;3.50;1.20;;;11.60;99.90;;;;;;5459341;25;20397;-73
2024/04/09 05:57:54;;;;;;;5.32;1.25;;;11.60;99.90;;;;;;5449213;26;20018;-74
2024/04/09 06:00:21;;;;;;;2.28;0.80;;;11.60;99.90;;;;;;5452243;26;19998;-75
2024/04/09 06:02:47;;;;;;;7.82;0.75;;;11.50;99.90;;;;;;5453461;26;20006;-73
2024/04/09 06:05:15;;;;;;;7.57;1.17;;;11.60;99.90;;;;;;5446764;25;20013;-72
2024/04/09 06:07:41;;;;;;;5.07;0.77;;;11.60;99.90;;;;;;5453876;26;20022;-73
2024/04/09 06:10:07;;;;;;;6.68;0.68;;;11.60;99.90;;;;;;5446097;26;20120;-73
2024/04/09 06:12:32;;;;;;;3.67;0.75;;;11.60;99.90;;;;;;5443086;26;19994;-73
2024/04/09 06:14:58;;;;;;;4.80;0.60;;;11.70;99.90;;;;;;5439480;26;20009;-70
2024/04/09 06:17:24;;;;;;;5.68;0.95;;;11.70;99.90;;;;;;5447006;26;19999;-71
2024/04/09 06:19:50;;;;;;;4.65;0.52;;;11.70;99.90;;;;;;5441834;26;20051;-72
2024/04/09 06:22:15;;;;;;;8.30;0.85;;;11.80;99.90;;;;;;5436160;26;19990;-72
2024/04/09 06:24:41;;;;;;;6.75;1.58;;;11.90;99.90;;;;;;5441009;26;20003;-71
2024/04/09 06:27:07;;;;;;;7.45;0.63;;;11.90;99.90;;;;;;5441403;26;20072;-73
2024/04/09 06:29:33;;;;;;;4.95;0.90;;;12.00;99.90;;;;;;5441829;26;20664;-72
2024/04/09 06:31:58;;;;;;;14.25;1.20;;;12.00;99.90;;;;;;5447949;25;20001;-72
2024/04/09 06:34:25;;;;;;;7.35;1.05;;;12.00;99.90;;;;;;5451555;26;20009;-73
2024/04/09 06:36:50;;;;;;;6.60;1.60;;;12.00;99.90;;;;;;5437929;25;20014;-73
2024/04/09 06:39:16;;;;;;;3.60;1.27;;;12.10;99.90;;;;;;5440696;26;20624;-73
2024/04/09 06:41:41;;;;;;;3.08;1.00;;;12.10;99.90;;;;;;5450600;26;20047;-72
2024/04/09 06:44:07;;;;;;;7.32;0.98;;;12.10;99.90;;;;;;5440217;26;19996;-73
2024/04/09 06:46:33;;;;;;;7.68;1.15;;;12.10;99.90;;;;;;5455871;26;19994;-72
2024/04/09 06:48:59;;;;;;;2.33;0.80;;;12.20;99.90;;;;;;5448821;26;19995;-72
2024/04/09 06:51:25;;;;;;;8.35;1.30;;;12.20;99.90;;;;;;5446171;26;20826;-72
2024/04/09 06:53:50;;;;;;;4.28;0.90;;;12.20;99.90;;;;;;5443473;25;19990;-72
2024/04/09 06:56:16;;;;;;;5.30;1.25;;;12.20;99.90;;;;;;5437007;25;20065;-72
2024/04/09 06:58:41;;;;;;;4.93;1.05;;;12.30;99.90;;;;;;5451624;25;20009;-73
2024/04/09 07:01:07;;;;;;;2.67;1.15;;;12.30;99.90;;;;;;5441000;25;20010;-73
2024/04/09 07:03:32;;;;;;;3.05;0.47;;;12.40;99.90;;;;;;5438885;25;20027;-72
2024/04/09 07:05:58;;;;;;;2.28;0.40;;;12.40;99.90;;;;;;5445865;25;20040;-72
2024/04/09 07:08:23;;;;;;;1.48;0.50;;;12.40;99.90;;;;;;5468632;25;19998;-75
2024/04/09 07:10:55;;;;;;;4.60;0.63;;;12.30;99.90;;;;;;5446058;25;19999;-72
2024/04/09 07:13:21;;;;;;;4.68;1.15;;;12.40;99.90;;;;;;5449174;25;19999;-72
2024/04/09 07:15:47;;;;;;;4.15;0.55;;;12.40;99.90;;;;;;5457353;25;20021;-72
2024/04/09 07:18:12;;;;;;;3.50;0.75;;;12.50;99.90;;;;;;5438216;25;20358;-74
2024/04/09 07:20:38;;;;;;;3.78;0.73;;;12.80;99.90;;;;;;5443849;25;19999;-72
2024/04/09 07:23:03;;;;;;;4.40;1.05;;;13.00;99.90;;;;;;5444711;25;20010;-74
2024/04/09 07:25:29;;;;;;;1.55;0.43;;;13.10;99.90;;;;;;5435792;25;20047;-72
2024/04/09 07:27:55;;;;;;;1.75;0.30;;;13.10;99.90;;;;;;5443684;25;20363;-71
2024/04/09 07:30:21;;;;;;;3.83;0.30;;;13.20;99.90;;;;;;5450500;26;20003;-72
2024/04/09 07:32:47;;;;;;;2.10;0.43;;;13.20;99.90;;;;;;5452295;25;20015;-73
2024/04/09 07:35:14;;;;;;;2.63;0.30;;;13.20;99.90;;;;;;5439106;26;20479;-74
2024/04/09 07:37:41;;;;;;;4.47;0.20;;;13.10;99.90;;;;;;5462092;25;19995;-72
2024/04/09 07:40:07;;;;;;;4.65;0.20;;;13.10;99.90;;;;;;5442234;26;19998;-73
2024/04/09 07:42:32;;;;;;;3.83;0.40;;;12.90;99.90;;;;;;5452385;25;20055;-73
2024/04/09 07:44:58;;;;;;;2.63;0.40;;;12.80;99.90;;;;;;5441083;25;20006;-73
2024/04/09 07:47:24;;;;;;;3.08;0.75;;;12.70;99.90;;;;;;5453757;26;20074;-70
2024/04/09 07:49:50;;;;;;;1.90;0.38;;;12.80;99.90;;;;;;5451115;25;20071;-72
2024/04/09 07:52:16;;;;;;;0.30;0.10;;;12.80;99.90;;;;;;5444290;26;20007;-74
2024/04/09 07:54:42;;;;;;;5.40;0.40;;;12.80;99.90;;;;;;5453892;25;19999;-75
2024/04/09 07:57:14;;;;;;;3.38;0.43;;;12.80;99.90;;;;;;5433183;26;20328;-74
2024/04/09 07:59:40;;;;;;;3.38;0.38;;;12.90;99.90;;;;;;5448199;26;20342;-73
2024/04/09 08:02:05;;;;;;;9.07;1.10;;;13.00;99.90;;;;;;5451946;25;19998;-72
2024/04/09 08:04:32;;;;;;;2.92;0.65;;;13.00;99.90;;;;;;5455986;25;20074;-74
2024/04/09 08:06:58;;;;;;;3.63;0.55;;;13.20;99.90;;;;;;5444249;25;19998;-73
2024/04/09 08:09:23;;;;;;;3.42;0.50;;;13.20;99.90;;;;;;5453531;26;20093;-70
2024/04/09 08:11:49;;;;;;;3.22;0.40;;;13.30;99.90;;;;;;5459475;25;19995;-74
2024/04/09 08:14:15;;;;;;;3.35;0.25;;;13.30;99.90;;;;;;5450835;25;20023;-73
2024/04/09 08:16:41;;;;;;;1.50;0.30;;;13.10;99.90;;;;;;5448784;26;20006;-72
2024/04/09 08:19:07;;;;;;;1.25;0.20;;;13.20;99.90;;;;;;5448057;26;20010;-71
2024/04/09 08:21:32;;;;;;;0.90;0.17;;;13.20;99.90;;;;;;5451095;25;20794;-72
2024/04/09 08:23:58;;;;;;;2.03;0.63;;;13.30;99.90;;;;;;5444441;25;20030;-73
2024/04/09 08:26:24;;;;;;;5.10;0.90;;;13.30;99.90;;;;;;5455833;26;19998;-70
2024/04/09 08:28:51;;;;;;;2.53;0.47;;;13.20;99.90;;;;;;5453437;25;20002;-73
2024/04/09 08:31:17;;;;;;;1.17;0.28;;;13.20;99.90;;;;;;5448713;26;20326;-73
2024/04/09 08:33:43;;;;;;;3.15;0.40;;;13.30;99.90;;;;;;5452727;25;20031;-74
2024/04/09 08:36:08;;;;;;;7.03;0.20;;;13.30;99.90;;;;;;5454905;25;19994;-72
2024/04/09 08:38:34;;;;;;;0.88;0.13;;;13.30;99.90;;;;;;5449640;26;19998;-74
2024/04/09 08:41:05;;;;;;;1.67;0.20;;;13.10;99.90;;;;;;5441715;26;20014;-74
2024/04/09 08:43:31;;;;;;;1.08;0.20;;;13.00;99.90;;;;;;5475814;25;20071;-73
2024/04/09 08:45:57;;;;;;;4.97;0.47;;;13.00;99.90;;;;;;5449980;25;20002;-71
2024/04/09 08:48:23;;;;;;;3.65;0.60;;;12.90;99.90;;;;;;5446227;26;19999;-73
2024/04/09 08:50:52;;;;;;;4.32;0.30;;;12.90;99.90;;;;;;5458860;25;20013;-74
2024/04/09 08:53:22;;;;;;;2.65;0.20;;;12.90;99.90;;;;;;5453070;26;20035;-73
2024/04/09 08:55:48;;;;;;;4.28;0.75;;;12.90;99.90;;;;;;5447896;25;20014;-74
2024/04/09 08:58:13;;;;;;;6.43;1.30;;;12.90;99.90;;;;;;5451189;26;20011;-74
2024/04/09 09:00:39;;;;;;;4.65;0.40;;;12.80;99.90;;;;;;5451233;26;20003;-73
2024/04/09 09:03:05;;;;;;;1.63;0.20;;;12.90;99.90;;;;;;5448312;25;20075;-72
2024/04/09 09:05:31;;;;;;;3.67;0.70;;;12.90;99.90;;;;;;5451447;26;20034;-72
2024/04/09 09:08:04;;;;;;;6.13;0.68;;;13.00;99.90;;;;;;5453637;26;20000;-72
2024/04/09 09:10:30;;;;;;;1.30;0.20;;;13.30;99.90;;;;;;5456076;26;20070;-73
2024/04/09 09:13:02;;;;;;;4.85;0.40;;;13.50;99.90;;;;;;5450074;26;20003;-70
2024/04/09 09:15:28;;;;;;;1.92;0.30;;;13.80;99.90;;;;;;5445025;26;20002;-73
2024/04/09 09:17:54;;;;;;;2.95;0.45;;;14.00;99.90;;;;;;5446321;26;20395;-73
2024/04/09 09:20:19;;;;;;;1.25;0.15;;;14.00;99.90;;;;;;5456176;25;20056;-74
2024/04/09 09:22:47;;;;;;;1.27;0.20;;;14.00;99.90;;;;;;5446936;26;20007;-73
2024/04/09 09:25:25;;;;;;;3.50;0.60;;;13.90;99.90;;;;;;5451603;25;20496;-73
2024/04/09 09:28:07;;;;;;;1.08;0.20;;;13.90;99.90;;;;;;5441795;25;20088;-74
2024/04/09 09:30:40;;;;;;;3.70;0.45;;;14.00;99.90;;;;;;5436047;25;20014;-74
2024/04/09 09:33:17;;;;;;;3.58;0.75;;;14.00;99.90;;;;;;5444449;26;20010;-72
2024/04/09 09:35:50;;;;;;;0.93;0.25;;;13.90;99.90;;;;;;5446485;26;20076;-73
2024/04/09 09:38:21;;;;;;;1.38;0.20;;;13.80;99.90;;;;;;5431944;26;19999;-73
2024/04/09 09:40:49;;;;;;;1.10;0.10;;;13.80;99.90;;;;;;5448116;25;20022;-74
2024/04/09 09:43:19;;;;;;;0.98;0.17;;;13.70;99.90;;;;;;5441750;26;20010;-72
2024/04/09 09:45:46;;;;;;;3.42;0.50;;;13.60;99.90;;;;;;5450034;25;19999;-74
2024/04/09 09:48:12;;;;;;;1.10;0.20;;;13.50;99.90;;;;;;5438617;25;20003;-73
2024/04/09 09:50:39;;;;;;;3.17;0.25;;;13.50;99.90;;;;;;5449166;26;20007;-75
2024/04/09 09:53:04;;;;;;;1.75;0.28;;;13.50;99.90;;;;;;5446561;26;20056;-74
2024/04/09 09:55:31;;;;;;;6.25;0.60;;;13.40;99.90;;;;;;5440794;25;20363;-73
2024/04/09 09:57:59;;;;;;;0.95;0.45;;;13.30;99.90;;;;;;5434361;26;19999;-72
2024/04/09 10:00:26;;;;;;;2.42;0.20;;;13.40;99.90;;;;;;5447743;26;20002;-74
2024/04/09 10:02:53;;;;;;;8.07;0.20;;;13.40;99.90;;;;;;5446672;26;20024;-73
2024/04/09 10:05:19;;;;;;;1.52;0.20;;;13.50;99.90;;;;;;5435052;26;20451;-73
2024/04/09 10:07:48;;;;;;;3.17;0.20;;;13.50;99.90;;;;;;5450641;25;20016;-74
2024/04/09 10:10:29;;;;;;;1.83;0.20;;;13.60;99.90;;;;;;5443307;25;20019;-73
2024/04/09 10:12:58;;;;;;;3.83;0.88;;;13.70;99.90;;;;;;5445282;25;20458;-73
2024/04/09 10:15:27;;;;;;;1.73;0.40;;;13.80;99.90;;;;;;5437982;25;20083;-73
2024/04/09 10:18:05;;;;;;;1.42;0.10;;;13.90;99.90;;;;;;5438945;26;20502;-75
2024/04/09 10:20:36;;;;;;;1.05;0.10;;;14.00;99.90;;;;;;5451564;25;20741;-73
2024/04/09 10:23:03;;;;;;;5.03;0.65;;;14.00;99.90;;;;;;5440426;25;20039;-71
2024/04/09 10:25:31;;;;;;;1.90;0.25;;;13.90;99.90;;;;;;5434236;26;20045;-74
2024/04/09 10:28:06;;;;;;;2.47;0.57;;;13.80;99.90;;;;;;5456694;25;20512;-72
2024/04/09 10:30:34;;;;;;;4.63;0.30;;;13.60;99.90;;;;;;5442675;26;20080;-71
2024/04/09 10:33:04;;;;;;;1.42;0.20;;;13.60;99.90;;;;;;5444795;25;20887;-72
2024/04/09 10:35:30;;;;;;;4.32;0.30;;;13.70;99.90;;;;;;5445986;26;20015;-72
2024/04/09 10:37:58;;;;;;;1.00;0.10;;;13.70;99.90;;;;;;5452400;25;20006;-71
2024/04/09 10:40:24;;;;;;;4.53;0.22;;;13.70;99.90;;;;;;5444566;26;19998;-73
2024/04/09 10:42:52;;;;;;;3.33;0.32;;;13.80;99.90;;;;;;5444982;25;19999;-74
2024/04/09 10:45:18;;;;;;;2.30;0.32;;;13.70;99.90;;;;;;5450992;25;20018;-72
2024/04/09 10:47:45;;;;;;;3.97;0.55;;;13.70;99.90;;;;;;5448312;26;20021;-73
2024/04/09 10:50:13;;;;;;;4.25;0.60;;;13.70;99.90;;;;;;5446607;25;20460;-72
2024/04/09 10:52:39;;;;;;;4.10;0.30;;;13.70;99.90;;;;;;5457350;26;20008;-71
2024/04/09 10:55:12;;;;;;;2.70;0.35;;;13.70;99.90;;;;;;5456913;25;19999;-73
2024/04/09 10:57:39;;;;;;;2.72;0.30;;;13.50;99.90;;;;;;5454937;25;20076;-71
2024/04/09 11:00:12;;;;;;;4.90;0.40;;;13.50;99.90;;;;;;5453770;25;20046;-72
2024/04/09 11:02:43;;;;;;;6.75;0.30;;;13.40;99.90;;;;;;5458864;25;20004;-71
2024/04/09 11:05:09;;;;;;;;;;;13.40;99.90;;;;;;5456186;25;20076;-69
2024/04/09 11:07:36;;;;;;;5.28;0.32;;;13.40;99.90;;;;;;5458935;26;19925;-72
2024/04/09 11:10:07;;;;;;;0.93;0.10;;;13.30;99.90;;;;;;5452146;25;19998;-72
2024/04/09 11:12:36;;;;;;;1.63;0.30;;;13.30;99.90;;;;;;5457766;25;20014;-72
2024/04/09 11:15:03;;;;;;;2.67;0.50;;;13.20;99.90;;;;;;5451875;25;20009;-73
2024/04/09 11:17:29;;;;;;;3.13;0.95;;;13.20;99.90;;;;;;5448024;26;20081;-73
2024/04/09 11:20:10;;;;;;;3.80;0.45;;;13.20;99.90;;;;;;5452508;25;20003;-73
2024/04/09 11:22:41;;;;;;;1.58;0.30;;;13.20;99.90;;;;;;5453853;25;19999;-72
2024/04/09 11:25:11;;;;;;;2.35;0.30;;;13.30;99.90;;;;;;5458866;25;20030;-73
2024/04/09 11:27:40;;;;;;;3.88;0.70;;;13.30;99.90;;;;;;5449498;25;20004;-73
2024/04/09 11:30:11;;;;;;;2.55;0.25;;;13.40;99.90;;;;;;5457282;25;20010;-71
2024/04/09 11:32:40;;;;;;;0.75;0.13;;;13.60;99.90;;;;;;5452380;25;19995;-72
2024/04/09 11:35:26;;;;;;;2.47;0.28;;;13.70;99.90;;;;;;5441453;25;20014;-72
2024/04/09 11:37:52;;;;;;;2.50;0.43;;;13.80;99.90;;;;;;5441962;25;20043;-73
2024/04/09 11:40:22;;;;;;;3.58;0.20;;;13.90;99.90;;;;;;5453895;26;20010;-74
2024/04/09 11:42:49;;;;;;;2.70;0.28;;;13.80;99.90;;;;;;5440389;25;20003;-73
2024/04/09 11:45:21;;;;;;;0.60;0.20;;;13.80;99.90;;;;;;5460005;25;19998;-73
2024/04/09 11:47:47;;;;;;;2.53;0.32;;;13.60;99.90;;;;;;5458461;26;20102;-71
2024/04/09 11:50:13;;;;;;;0.90;0.13;;;13.50;99.90;;;;;;5444041;26;20079;-71
2024/04/09 11:52:39;;;;;;;4.32;0.40;;;13.50;99.90;;;;;;5459727;26;20006;-73
2024/04/09 11:55:04;;;;;;;1.10;0.55;;;13.50;99.90;;;;;;5441191;26;20010;-71
2024/04/09 11:57:30;;;;;;;2.08;0.65;;;13.30;99.90;;;;;;5457235;26;19995;-73
2024/04/09 11:59:56;;;;;;;1.05;0.40;;;13.30;99.90;;;;;;5462429;25;20511;-72
2024/04/09 12:02:22;;;;;;;1.05;0.22;;;13.20;99.90;;;;;;5451100;26;20007;-73
2024/04/09 12:04:47;;;;;;;0.80;0.13;;;13.10;99.90;;;;;;5450991;26;19996;-73
2024/04/09 12:07:13;;;;;;;3.20;0.35;;;13.20;99.90;;;;;;5439760;25;19998;-73
2024/04/09 12:09:38;;;;;;;1.27;0.20;;;13.10;99.90;;;;;;5462144;25;19998;-74
2024/04/09 12:12:08;;;;;;;1.73;0.40;;;13.00;99.90;;;;;;5449532;25;20006;-71
2024/04/09 12:14:37;;;;;;;1.95;0.30;;;13.00;99.90;;;;;;5465620;25;20098;-73
2024/04/09 12:17:05;;;;;;;1.08;0.10;;;13.00;99.90;;;;;;5459582;25;19995;-74
2024/04/09 12:19:30;;;;;;;6.55;0.30;;;13.20;99.90;;;;;;5448637;26;20009;-73
2024/04/09 12:21:57;;;;;;;1.15;0.10;;;13.20;99.90;;;;;;5445012;25;19995;-70
2024/04/09 12:24:24;;;;;;;3.92;1.00;;;13.20;99.90;;;;;;5452233;25;19994;-73
2024/04/09 12:26:50;;;;;;;0.63;0.20;;;13.20;99.90;;;;;;5447546;26;20000;-75
2024/04/09 12:29:16;;;;;;;1.05;0.10;;;13.20;99.90;;;;;;5469585;25;20158;-72
2024/04/09 12:31:43;;;;;;;2.17;0.30;;;13.10;99.90;;;;;;5437887;26;20058;-73
2024/04/09 12:34:09;;;;;;;1.02;0.10;;;13.00;99.90;;;;;;5457503;25;20553;-72
2024/04/09 12:36:35;;;;;;;3.03;0.35;;;12.90;99.90;;;;;;5443003;26;20078;-73
2024/04/09 12:39:01;;;;;;;1.02;0.40;;;12.90;99.90;;;;;;5450113;25;19999;-71
2024/04/09 12:41:28;;;;;;;2.30;0.20;;;12.90;99.90;;;;;;5457983;26;20006;-74
2024/04/09 12:43:53;;;;;;;2.83;0.10;;;13.00;99.90;;;;;;5440433;25;20037;-73
2024/04/09 12:46:19;;;;;;;0.57;0.25;;;13.00;99.90;;;;;;5462304;25;19998;-72